sensor_id;sensor_type;location;lat;lon;timestamp;pressure;altitude;pressure_sealevel;temperature;humidity
70925;BME280;58577;52.410;13.242;2022-10-18T00:00:17;101984.31;;;13.52;100.00
70925;BME280;58577;52.410;13.242;2022-10-18T00:03:03;102001.78;;;13.58;100.00
70925;BME280;58577;52.410;13.242;2022-10-18T00:05:49;101996.25;;;13.60;100.00
70925;BME280;58577;52.410;13.242;2022-10-18T00:08:37;101996.41;;;13.58;100.00
70925;BME280;58577;52.410;13.242;2022-10-18T00:11:23;101996.41;;;13.58;100.00
70925;BME280;58577;52.410;13.242;2022-10-18T00:14:09;101994.09;;;13.53;100.00
70925;BME280;58577;52.410;13.242;2022-10-18T00:16:54;101991.28;;;13.55;100.00
70925;BME280;58577;52.410;13.242;2022-10-18T00:19:40;101998.81;;;13.61;100.00
70925;BME280;58577;52.410;13.242;2022-10-18T00:22:26;102004.06;;;13.63;100.00
70925;BME280;58577;52.410;13.242;2022-10-18T00:25:12;102006.91;;;13.61;100.00
70925;BME280;58577;52.410;13.242;2022-10-18T00:27:58;102012.31;;;13.71;100.00
70925;BME280;58577;52.410;13.242;2022-10-18T00:30:44;102004.91;;;13.63;100.00
70925;BME280;58577;52.410;13.242;2022-10-18T00:33:29;102004.94;;;13.73;100.00
70925;BME280;58577;52.410;13.242;2022-10-18T00:36:16;102001.28;;;13.74;100.00
70925;BME280;58577;52.410;13.242;2022-10-18T00:39:04;102011.19;;;13.64;100.00
70925;BME280;58577;52.410;13.242;2022-10-18T00:41:50;102012.75;;;13.66;100.00
70925;BME280;58577;52.410;13.242;2022-10-18T00:47:23;102013.56;;;13.57;100.00
70925;BME280;58577;52.410;13.242;2022-10-18T00:50:09;102011.88;;;13.56;100.00
70925;BME280;58577;52.410;13.242;2022-10-18T00:52:57;102011.88;;;13.56;100.00
70925;BME280;58577;52.410;13.242;2022-10-18T00:55:44;102007.31;;;13.56;100.00
70925;BME280;58577;52.410;13.242;2022-10-18T00:58:30;102015.41;;;13.56;100.00
70925;BME280;58577;52.410;13.242;2022-10-18T01:01:16;102012.13;;;13.53;100.00
70925;BME280;58577;52.410;13.242;2022-10-18T01:04:02;102015.78;;;13.52;100.00
70925;BME280;58577;52.410;13.242;2022-10-18T01:10:00;102020.34;;;13.51;100.00
70925;BME280;58577;52.410;13.242;2022-10-18T01:13:30;102027.47;;;13.52;100.00
70925;BME280;58577;52.410;13.242;2022-10-18T01:19:24;102024.47;;;13.55;100.00
70925;BME280;58577;52.410;13.242;2022-10-18T01:22:22;102024.34;;;13.57;100.00
70925;BME280;58577;52.410;13.242;2022-10-18T01:25:34;102010.00;;;13.56;100.00
70925;BME280;58577;52.410;13.242;2022-10-18T01:31:20;102014.03;;;13.72;100.00
70925;BME280;58577;52.410;13.242;2022-10-18T01:34:08;102010.25;;;13.84;100.00
70925;BME280;58577;52.410;13.242;2022-10-18T01:36:56;102003.00;;;13.94;100.00
70925;BME280;58577;52.410;13.242;2022-10-18T01:39:46;102002.50;;;14.01;100.00
70925;BME280;58577;52.410;13.242;2022-10-18T01:42:33;102016.72;;;14.12;100.00
70925;BME280;58577;52.410;13.242;2022-10-18T01:45:20;102014.03;;;14.22;100.00
70925;BME280;58577;52.410;13.242;2022-10-18T01:48:09;102012.75;;;14.26;100.00
70925;BME280;58577;52.410;13.242;2022-10-18T01:50:56;102009.91;;;14.18;100.00
70925;BME280;58577;52.410;13.242;2022-10-18T01:53:41;102019.13;;;14.25;100.00
70925;BME280;58577;52.410;13.242;2022-10-18T02:02:39;102022.97;;;14.32;100.00
70925;BME280;58577;52.410;13.242;2022-10-18T02:08:24;102014.47;;;14.37;100.00
70925;BME280;58577;52.410;13.242;2022-10-18T02:11:14;102017.19;;;14.37;100.00
70925;BME280;58577;52.410;13.242;2022-10-18T02:14:10;102016.03;;;14.40;100.00
70925;BME280;58577;52.410;13.242;2022-10-18T02:16:58;102013.34;;;14.40;100.00
70925;BME280;58577;52.410;13.242;2022-10-18T02:19:51;102006.78;;;14.42;100.00
70925;BME280;58577;52.410;13.242;2022-10-18T02:22:39;102012.31;;;14.41;100.00
70925;BME280;58577;52.410;13.242;2022-10-18T02:25:29;102018.44;;;14.43;100.00
70925;BME280;58577;52.410;13.242;2022-10-18T02:28:16;102013.03;;;14.43;100.00
70925;BME280;58577;52.410;13.242;2022-10-18T02:31:20;102023.84;;;14.43;100.00
70925;BME280;58577;52.410;13.242;2022-10-18T02:34:32;102038.91;;;14.45;100.00
70925;BME280;58577;52.410;13.242;2022-10-18T02:37:19;102032.25;;;14.49;100.00
70925;BME280;58577;52.410;13.242;2022-10-18T02:40:06;102037.78;;;14.48;100.00
70925;BME280;58577;52.410;13.242;2022-10-18T02:42:55;102044.59;;;14.52;100.00
70925;BME280;58577;52.410;13.242;2022-10-18T02:45:41;102040.38;;;14.59;100.00
70925;BME280;58577;52.410;13.242;2022-10-18T02:48:27;102032.97;;;14.61;100.00
70925;BME280;58577;52.410;13.242;2022-10-18T02:51:14;102031.25;;;14.60;100.00
70925;BME280;58577;52.410;13.242;2022-10-18T02:54:09;102034.41;;;14.65;100.00
70925;BME280;58577;52.410;13.242;2022-10-18T02:57:06;102041.22;;;14.60;100.00
70925;BME280;58577;52.410;13.242;2022-10-18T03:00:04;102042.22;;;14.59;100.00
70925;BME280;58577;52.410;13.242;2022-10-18T03:02:50;102042.38;;;14.57;100.00
70925;BME280;58577;52.410;13.242;2022-10-18T03:05:37;102038.81;;;14.57;100.00
70925;BME280;58577;52.410;13.242;2022-10-18T03:08:23;102051.41;;;14.56;100.00
70925;BME280;58577;52.410;13.242;2022-10-18T03:11:08;102065.66;;;14.58;100.00
70925;BME280;58577;52.410;13.242;2022-10-18T03:13:54;102073.03;;;14.56;100.00
70925;BME280;58577;52.410;13.242;2022-10-18T03:16:40;102064.56;;;14.70;100.00
70925;BME280;58577;52.410;13.242;2022-10-18T03:19:26;102061.72;;;14.62;100.00
70925;BME280;58577;52.410;13.242;2022-10-18T03:22:11;102043.22;;;14.58;100.00
70925;BME280;58577;52.410;13.242;2022-10-18T03:24:57;102041.91;;;14.52;100.00
70925;BME280;58577;52.410;13.242;2022-10-18T03:27:43;102040.47;;;14.48;100.00
70925;BME280;58577;52.410;13.242;2022-10-18T03:30:28;102045.28;;;14.44;100.00
70925;BME280;58577;52.410;13.242;2022-10-18T03:33:14;102042.03;;;14.41;100.00
70925;BME280;58577;52.410;13.242;2022-10-18T03:36:00;102042.31;;;14.38;100.00
70925;BME280;58577;52.410;13.242;2022-10-18T03:38:46;102047.00;;;14.35;100.00
70925;BME280;58577;52.410;13.242;2022-10-18T03:41:32;102063.22;;;14.35;100.00
70925;BME280;58577;52.410;13.242;2022-10-18T03:44:17;102063.22;;;14.35;100.00
70925;BME280;58577;52.410;13.242;2022-10-18T03:47:03;102060.66;;;14.34;100.00
70925;BME280;58577;52.410;13.242;2022-10-18T03:49:49;102058.22;;;14.31;100.00
70925;BME280;58577;52.410;13.242;2022-10-18T03:52:34;102049.97;;;14.32;100.00
70925;BME280;58577;52.410;13.242;2022-10-18T03:55:20;102046.44;;;14.32;100.00
70925;BME280;58577;52.410;13.242;2022-10-18T03:58:06;102048.56;;;14.28;100.00
70925;BME280;58577;52.410;13.242;2022-10-18T04:00:54;102051.69;;;14.24;100.00
70925;BME280;58577;52.410;13.242;2022-10-18T04:03:39;102059.06;;;14.22;100.00
70925;BME280;58577;52.410;13.242;2022-10-18T04:06:25;102060.03;;;14.21;100.00
70925;BME280;58577;52.410;13.242;2022-10-18T04:09:11;102047.53;;;14.20;100.00
70925;BME280;58577;52.410;13.242;2022-10-18T04:11:57;102061.31;;;14.16;100.00
70925;BME280;58577;52.410;13.242;2022-10-18T04:14:42;102060.47;;;14.16;100.00
70925;BME280;58577;52.410;13.242;2022-10-18T04:17:28;102062.16;;;14.17;100.00
70925;BME280;58577;52.410;13.242;2022-10-18T04:20:14;102066.97;;;14.13;100.00
70925;BME280;58577;52.410;13.242;2022-10-18T04:22:59;102068.13;;;14.11;100.00
70925;BME280;58577;52.410;13.242;2022-10-18T04:25:45;102057.59;;;14.08;100.00
70925;BME280;58577;52.410;13.242;2022-10-18T04:28:32;102059.56;;;14.06;100.00
70925;BME280;58577;52.410;13.242;2022-10-18T04:31:18;102055.06;;;14.06;100.00
70925;BME280;58577;52.410;13.242;2022-10-18T04:34:03;102055.19;;;14.05;100.00
70925;BME280;58577;52.410;13.242;2022-10-18T04:36:49;102047.22;;;14.03;100.00
70925;BME280;58577;52.410;13.242;2022-10-18T04:39:35;102054.72;;;14.00;100.00
70925;BME280;58577;52.410;13.242;2022-10-18T04:42:21;102054.03;;;13.98;100.00
70925;BME280;58577;52.410;13.242;2022-10-18T04:45:07;102051.59;;;13.94;100.00
70925;BME280;58577;52.410;13.242;2022-10-18T04:47:53;102046.47;;;13.91;100.00
70925;BME280;58577;52.410;13.242;2022-10-18T04:50:39;102043.91;;;13.90;100.00
70925;BME280;58577;52.410;13.242;2022-10-18T04:53:32;102053.16;;;13.87;100.00
70925;BME280;58577;52.410;13.242;2022-10-18T04:56:18;102061.25;;;13.87;100.00
70925;BME280;58577;52.410;13.242;2022-10-18T04:59:04;102055.84;;;13.87;100.00
70925;BME280;58577;52.410;13.242;2022-10-18T05:01:50;102045.31;;;13.84;100.00
70925;BME280;58577;52.410;13.242;2022-10-18T05:04:35;102051.72;;;13.83;100.00
70925;BME280;58577;52.410;13.242;2022-10-18T05:07:21;102038.09;;;13.94;100.00
70925;BME280;58577;52.410;13.242;2022-10-18T05:10:07;102040.63;;;13.86;100.00
70925;BME280;58577;52.410;13.242;2022-10-18T05:12:53;102037.22;;;13.84;100.00
70925;BME280;58577;52.410;13.242;2022-10-18T05:15:39;102037.63;;;13.80;100.00
70925;BME280;58577;52.410;13.242;2022-10-18T05:18:25;102032.50;;;13.76;100.00
70925;BME280;58577;52.410;13.242;2022-10-18T05:21:12;102038.91;;;13.75;100.00
70925;BME280;58577;52.410;13.242;2022-10-18T05:23:57;102043.59;;;13.73;100.00
70925;BME280;58577;52.410;13.242;2022-10-18T05:26:43;102045.56;;;13.71;100.00
70925;BME280;58577;52.410;13.242;2022-10-18T05:29:29;102045.69;;;13.70;100.00
70925;BME280;58577;52.410;13.242;2022-10-18T05:32:15;102037.88;;;13.67;100.00
70925;BME280;58577;52.410;13.242;2022-10-18T05:35:00;102032.75;;;13.64;100.00
70925;BME280;58577;52.410;13.242;2022-10-18T05:37:47;102039.13;;;13.63;100.00
70925;BME280;58577;52.410;13.242;2022-10-18T05:40:33;102042.66;;;13.63;100.00
70925;BME280;58577;52.410;13.242;2022-10-18T05:43:18;102046.97;;;13.66;100.00
70925;BME280;58577;52.410;13.242;2022-10-18T05:46:04;102052.34;;;13.66;100.00
70925;BME280;58577;52.410;13.242;2022-10-18T05:48:52;102044.66;;;13.61;100.00
70925;BME280;58577;52.410;13.242;2022-10-18T05:51:38;102047.88;;;13.55;100.00
70925;BME280;58577;52.410;13.242;2022-10-18T05:54:23;102050.72;;;13.53;100.00
70925;BME280;58577;52.410;13.242;2022-10-18T05:57:09;102050.72;;;13.53;100.00
70925;BME280;58577;52.410;13.242;2022-10-18T05:59:55;102049.50;;;13.67;100.00
70925;BME280;58577;52.410;13.242;2022-10-18T06:02:40;102039.44;;;13.69;100.00
70925;BME280;58577;52.410;13.242;2022-10-18T06:05:26;102038.66;;;13.57;100.00
70925;BME280;58577;52.410;13.242;2022-10-18T06:08:12;102040.66;;;13.55;100.00
70925;BME280;58577;52.410;13.242;2022-10-18T06:10:58;102025.00;;;13.49;100.00
70925;BME280;58577;52.410;13.242;2022-10-18T06:13:46;102027.00;;;13.47;100.00
70925;BME280;58577;52.410;13.242;2022-10-18T06:16:32;102026.88;;;13.49;100.00
70925;BME280;58577;52.410;13.242;2022-10-18T06:19:17;102027.84;;;13.48;100.00
70925;BME280;58577;52.410;13.242;2022-10-18T06:22:03;102021.47;;;13.49;100.00
70925;BME280;58577;52.410;13.242;2022-10-18T06:24:49;102029.56;;;13.49;100.00
70925;BME280;58577;52.410;13.242;2022-10-18T06:27:34;102027.13;;;13.46;100.00
70925;BME280;58577;52.410;13.242;2022-10-18T06:30:20;102020.03;;;13.45;100.00
70925;BME280;58577;52.410;13.242;2022-10-18T06:33:06;102024.00;;;13.41;100.00
70925;BME280;58577;52.410;13.242;2022-10-18T06:36:05;102020.28;;;13.42;100.00
70925;BME280;58577;52.410;13.242;2022-10-18T06:38:52;102033.22;;;13.48;100.00
70925;BME280;58577;52.410;13.242;2022-10-18T06:41:38;102029.00;;;13.55;100.00
70925;BME280;58577;52.410;13.242;2022-10-18T06:44:37;102040.38;;;13.59;100.00
70925;BME280;58577;52.410;13.242;2022-10-18T06:47:23;102033.28;;;13.57;100.00
70925;BME280;58577;52.410;13.242;2022-10-18T06:50:09;102027.16;;;13.55;100.00
70925;BME280;58577;52.410;13.242;2022-10-18T06:52:56;102034.16;;;13.58;100.00
70925;BME280;58577;52.410;13.242;2022-10-18T06:55:41;102037.81;;;13.57;100.00
70925;BME280;58577;52.410;13.242;2022-10-18T06:58:28;102038.66;;;13.57;100.00
70925;BME280;58577;52.410;13.242;2022-10-18T07:01:16;102052.88;;;13.60;100.00
70925;BME280;58577;52.410;13.242;2022-10-18T07:04:02;102057.75;;;13.66;100.00
70925;BME280;58577;52.410;13.242;2022-10-18T07:06:48;102061.00;;;13.69;100.00
70925;BME280;58577;52.410;13.242;2022-10-18T07:09:34;102068.84;;;13.72;100.00
70925;BME280;58577;52.410;13.242;2022-10-18T07:12:19;102065.59;;;13.79;100.00
70925;BME280;58577;52.410;13.242;2022-10-18T07:15:05;102070.00;;;13.80;100.00
70925;BME280;58577;52.410;13.242;2022-10-18T07:17:51;102079.25;;;13.87;100.00
70925;BME280;58577;52.410;13.242;2022-10-18T07:20:37;102086.81;;;13.93;100.00
70925;BME280;58577;52.410;13.242;2022-10-18T07:23:23;102083.84;;;13.96;100.00
70925;BME280;58577;52.410;13.242;2022-10-18T07:32:00;102106.56;;;13.93;100.00
70925;BME280;58577;52.410;13.242;2022-10-18T07:34:45;102106.28;;;13.96;100.00
70925;BME280;58577;52.410;13.242;2022-10-18T07:37:31;102110.69;;;13.98;100.00
70925;BME280;58577;52.410;13.242;2022-10-18T07:40:17;102105.28;;;13.98;100.00
70925;BME280;58577;52.410;13.242;2022-10-18T07:43:03;102102.59;;;13.98;100.00
70925;BME280;58577;52.410;13.242;2022-10-18T07:45:57;102100.47;;;14.01;100.00
70925;BME280;58577;52.410;13.242;2022-10-18T07:48:43;102099.03;;;13.97;100.00
70925;BME280;58577;52.410;13.242;2022-10-18T07:51:29;102099.75;;;13.99;100.00
70925;BME280;58577;52.410;13.242;2022-10-18T07:54:20;102100.47;;;14.01;100.00
70925;BME280;58577;52.410;13.242;2022-10-18T07:57:06;102096.94;;;14.01;100.00
70925;BME280;58577;52.410;13.242;2022-10-18T07:59:52;102095.38;;;14.08;100.00
70925;BME280;58577;52.410;13.242;2022-10-18T08:02:41;102096.38;;;14.07;100.00
70925;BME280;58577;52.410;13.242;2022-10-18T08:05:27;102101.06;;;14.05;100.00
70925;BME280;58577;52.410;13.242;2022-10-18T08:08:13;102093.09;;;14.03;100.00
70925;BME280;58577;52.410;13.242;2022-10-18T08:11:12;102100.22;;;14.04;100.00
70925;BME280;58577;52.410;13.242;2022-10-18T08:13:59;102107.88;;;14.09;100.00
70925;BME280;58577;52.410;13.242;2022-10-18T08:16:45;102095.13;;;14.11;100.00
70925;BME280;58577;52.410;13.242;2022-10-18T08:19:31;102103.66;;;14.16;100.00
70925;BME280;58577;52.410;13.242;2022-10-18T08:22:16;102097.25;;;14.17;100.00
70925;BME280;58577;52.410;13.242;2022-10-18T08:25:03;102095.41;;;14.18;100.00
70925;BME280;58577;52.410;13.242;2022-10-18T08:27:48;102098.97;;;14.18;100.00
70925;BME280;58577;52.410;13.242;2022-10-18T08:30:34;102094.28;;;14.20;100.00
70925;BME280;58577;52.410;13.242;2022-10-18T08:33:20;102095.84;;;14.23;100.00
70925;BME280;58577;52.410;13.242;2022-10-18T08:36:08;102101.13;;;14.24;100.00
70925;BME280;58577;52.410;13.242;2022-10-18T08:38:55;102103.09;;;14.22;100.00
70925;BME280;58577;52.410;13.242;2022-10-18T08:44:50;102100.41;;;14.22;100.00
70925;BME280;58577;52.410;13.242;2022-10-18T08:47:41;102088.75;;;14.22;100.00
70925;BME280;58577;52.410;13.242;2022-10-18T08:50:31;102093.03;;;14.24;100.00
70925;BME280;58577;52.410;13.242;2022-10-18T08:54:13;102094.88;;;14.24;100.00
70925;BME280;58577;52.410;13.242;2022-10-18T08:56:33;102098.00;;;14.29;100.00
70925;BME280;58577;52.410;13.242;2022-10-18T08:59:19;102097.53;;;14.14;100.00
70925;BME280;58577;52.410;13.242;2022-10-18T09:05:24;102089.16;;;14.17;100.00
70925;BME280;58577;52.410;13.242;2022-10-18T09:11:46;102092.16;;;14.14;100.00
70925;BME280;58577;52.410;13.242;2022-10-18T09:14:59;102099.81;;;14.19;100.00
70925;BME280;58577;52.410;13.242;2022-10-18T09:20:58;102102.22;;;14.12;100.00
70925;BME280;58577;52.410;13.242;2022-10-18T09:23:52;102101.06;;;14.05;100.00
70925;BME280;58577;52.410;13.242;2022-10-18T09:26:47;102099.34;;;14.04;100.00
70925;BME280;58577;52.410;13.242;2022-10-18T09:30:02;102096.63;;;14.04;100.00
70925;BME280;58577;52.410;13.242;2022-10-18T09:33:15;102093.38;;;14.10;100.00
70925;BME280;58577;52.410;13.242;2022-10-18T09:36:28;102092.25;;;14.03;100.00
70925;BME280;58577;52.410;13.242;2022-10-18T09:39:20;102094.66;;;14.06;100.00
70925;BME280;58577;52.410;13.242;2022-10-18T09:42:16;102096.38;;;14.07;100.00
70925;BME280;58577;52.410;13.242;2022-10-18T09:45:30;102088.16;;;14.08;100.00
70925;BME280;58577;52.410;13.242;2022-10-18T09:48:26;102092.16;;;14.14;100.00
70925;BME280;58577;52.410;13.242;2022-10-18T09:51:19;102093.03;;;14.24;100.00
70925;BME280;58577;52.410;13.242;2022-10-18T09:54:13;102100.53;;;14.21;100.00
70925;BME280;58577;52.410;13.242;2022-10-18T09:57:14;102102.53;;;14.19;100.00
70925;BME280;58577;52.410;13.242;2022-10-18T10:00:04;102098.81;;;14.20;100.00
70925;BME280;58577;52.410;13.242;2022-10-18T10:02:51;102097.97;;;14.19;100.00
70925;BME280;58577;52.410;13.242;2022-10-18T10:05:37;102104.78;;;14.23;100.00
70925;BME280;58577;52.410;13.242;2022-10-18T10:08:31;102100.81;;;14.27;100.00
70925;BME280;58577;52.410;13.242;2022-10-18T10:14:22;102094.41;;;14.19;100.00
70925;BME280;58577;52.410;13.242;2022-10-18T10:17:25;102099.94;;;14.17;100.00
70925;BME280;58577;52.410;13.242;2022-10-18T10:20:20;102100.09;;;14.15;100.00
70925;BME280;58577;52.410;13.242;2022-10-18T10:23:28;102097.81;;;14.11;100.00
70925;BME280;58577;52.410;13.242;2022-10-18T10:26:32;102095.38;;;14.08;100.00
70925;BME280;58577;52.410;13.242;2022-10-18T10:32:45;102091.97;;;14.06;100.00
70925;BME280;58577;52.410;13.242;2022-10-18T10:35:40;102080.06;;;14.08;100.00
70925;BME280;58577;52.410;13.242;2022-10-18T10:38:28;102080.09;;;14.18;100.00
70925;BME280;58577;52.410;13.242;2022-10-18T10:41:19;102078.94;;;14.21;100.00
70925;BME280;58577;52.410;13.242;2022-10-18T10:44:14;102071.81;;;14.20;100.00
70925;BME280;58577;52.410;13.242;2022-10-18T10:47:01;102066.00;;;14.14;100.00
70925;BME280;58577;52.410;13.242;2022-10-18T10:49:47;102063.31;;;14.14;100.00
70925;BME280;58577;52.410;13.242;2022-10-18T10:52:33;102060.19;;;14.19;100.00
70925;BME280;58577;52.410;13.242;2022-10-18T10:55:22;102062.47;;;14.24;100.00
70925;BME280;58577;52.410;13.242;2022-10-18T10:58:16;102047.13;;;14.24;100.00
70925;BME280;58577;52.410;13.242;2022-10-18T11:04:26;102047.69;;;14.18;100.00
70925;BME280;58577;52.410;13.242;2022-10-18T11:07:48;102053.94;;;14.28;100.00
70925;BME280;58577;52.410;13.242;2022-10-18T11:10:52;102061.06;;;14.29;100.00
70925;BME280;58577;52.410;13.242;2022-10-18T11:13:45;102056.22;;;14.33;100.00
70925;BME280;58577;52.410;13.242;2022-10-18T11:17:05;102050.28;;;14.49;100.00
70925;BME280;58577;52.410;13.242;2022-10-18T11:20:06;102054.53;;;14.32;100.00
70925;BME280;58577;52.410;13.242;2022-10-18T11:29:02;102047.16;;;14.44;100.00
70925;BME280;58577;52.410;13.242;2022-10-18T11:50:47;102050.59;;;14.65;100.00
70925;BME280;58577;52.410;13.242;2022-10-18T11:53:37;102037.53;;;14.70;100.00
70925;BME280;58577;52.410;13.242;2022-10-18T11:56:43;102038.38;;;14.71;100.00
70925;BME280;58577;52.410;13.242;2022-10-18T11:59:37;102034.25;;;14.96;100.00
70925;BME280;58577;52.410;13.242;2022-10-18T12:05:29;102034.78;;;15.09;100.00
70925;BME280;58577;52.410;13.242;2022-10-18T12:08:36;102037.47;;;15.19;100.00
70925;BME280;58577;52.410;13.242;2022-10-18T12:11:27;102030.81;;;15.04;100.00
70925;BME280;58577;52.410;13.242;2022-10-18T12:14:32;102023.44;;;14.96;100.00
70925;BME280;58577;52.410;13.242;2022-10-18T12:17:30;102031.81;;;14.93;100.00
70925;BME280;58577;52.410;13.242;2022-10-18T12:20:23;102027.69;;;14.99;100.00
70925;BME280;58577;52.410;13.242;2022-10-18T12:23:15;102028.97;;;14.94;100.00
70925;BME280;58577;52.410;13.242;2022-10-18T12:26:04;102021.56;;;14.97;100.00
70925;BME280;58577;52.410;13.242;2022-10-18T12:31:52;102027.16;;;14.95;100.00
70925;BME280;58577;52.410;13.242;2022-10-18T12:34:44;102012.19;;;14.91;100.00
70925;BME280;58577;52.410;13.242;2022-10-18T12:43:17;102012.19;;;15.10;100.00
70925;BME280;58577;52.410;13.242;2022-10-18T12:46:06;102013.31;;;15.08;100.00
70925;BME280;58577;52.410;13.242;2022-10-18T12:49:02;102009.47;;;15.10;100.00
70925;BME280;58577;52.410;13.242;2022-10-18T12:51:54;102011.78;;;14.96;100.00
70925;BME280;58577;52.410;13.242;2022-10-18T12:55:11;102006.97;;;14.89;100.00
70925;BME280;58577;52.410;13.242;2022-10-18T13:01:02;102014.78;;;14.83;100.00
70925;BME280;58577;52.410;13.242;2022-10-18T13:03:52;102008.78;;;14.89;100.00
70925;BME280;58577;52.410;13.242;2022-10-18T13:13:17;102011.50;;;14.79;100.00
70925;BME280;58577;52.410;13.242;2022-10-18T13:19:35;102015.47;;;14.85;100.00
70925;BME280;58577;52.410;13.242;2022-10-18T13:22:30;102001.81;;;14.96;100.00
70925;BME280;58577;52.410;13.242;2022-10-18T13:28:30;102009.31;;;15.12;100.00
70925;BME280;58577;52.410;13.242;2022-10-18T13:31:28;102012.44;;;15.17;100.00
70925;BME280;58577;52.410;13.242;2022-10-18T13:34:27;102004.31;;;15.17;100.00
70925;BME280;58577;52.410;13.242;2022-10-18T13:40:22;102008.41;;;15.31;100.00
70925;BME280;58577;52.410;13.242;2022-10-18T13:58:45;102012.38;;;15.37;100.00
70925;BME280;58577;52.410;13.242;2022-10-18T14:07:48;102019.69;;;15.17;100.00
70925;BME280;58577;52.410;13.242;2022-10-18T14:10:41;102022.97;;;15.20;100.00
70925;BME280;58577;52.410;13.242;2022-10-18T14:14:12;102034.84;;;15.37;100.00
70925;BME280;58577;52.410;13.242;2022-10-18T14:17:11;102025.13;;;15.54;100.00
70925;BME280;58577;52.410;13.242;2022-10-18T14:20:04;102026.97;;;15.53;100.00
70925;BME280;58577;52.410;13.242;2022-10-18T14:23:06;102030.94;;;15.59;100.00
70925;BME280;58577;52.410;13.242;2022-10-18T14:26:06;102042.78;;;15.48;100.00
70925;BME280;58577;52.410;13.242;2022-10-18T14:29:05;102044.84;;;15.27;100.00
70925;BME280;58577;52.410;13.242;2022-10-18T14:31:52;102038.78;;;15.05;100.00
70925;BME280;58577;52.410;13.242;2022-10-18T14:34:42;102048.75;;;14.85;100.00
70925;BME280;58577;52.410;13.242;2022-10-18T14:37:35;102051.75;;;14.72;100.00
70925;BME280;58577;52.410;13.242;2022-10-18T14:40:47;102052.31;;;14.66;100.00
70925;BME280;58577;52.410;13.242;2022-10-18T14:43:33;102042.59;;;14.54;100.00
70925;BME280;58577;52.410;13.242;2022-10-18T14:46:23;102060.66;;;14.44;100.00
70925;BME280;58577;52.410;13.242;2022-10-18T14:49:12;102048.44;;;14.49;100.00
70925;BME280;58577;52.410;13.242;2022-10-18T14:51:59;102052.28;;;14.37;100.00
70925;BME280;58577;52.410;13.242;2022-10-18T14:54:45;102052.69;;;14.42;100.00
70925;BME280;58577;52.410;13.242;2022-10-18T14:57:35;102055.00;;;14.47;100.00
70925;BME280;58577;52.410;13.242;2022-10-18T15:00:26;102040.47;;;14.48;100.00
70925;BME280;58577;52.410;13.242;2022-10-18T15:03:15;102045.66;;;14.61;100.00
70925;BME280;58577;52.410;13.242;2022-10-18T15:06:04;102037.63;;;14.49;100.00
70925;BME280;58577;52.410;13.242;2022-10-18T15:08:55;102039.91;;;14.44;100.00
70925;BME280;58577;52.410;13.242;2022-10-18T15:11:43;102042.72;;;14.43;100.00
70925;BME280;58577;52.410;13.242;2022-10-18T15:14:30;102043.47;;;14.45;100.00
70925;BME280;58577;52.410;13.242;2022-10-18T15:17:29;102037.50;;;14.51;100.00
70925;BME280;58577;52.410;13.242;2022-10-18T15:20:25;102047.41;;;14.41;100.00
70925;BME280;58577;52.410;13.242;2022-10-18T15:23:24;102048.56;;;14.28;100.00
70925;BME280;58577;52.410;13.242;2022-10-18T15:26:13;102049.25;;;14.21;100.00
70925;BME280;58577;52.410;13.242;2022-10-18T15:29:01;102046.81;;;14.18;100.00
70925;BME280;58577;52.410;13.242;2022-10-18T15:31:48;102049.34;;;14.00;100.00
70925;BME280;58577;52.410;13.242;2022-10-18T15:34:34;102053.00;;;13.89;100.00
70925;BME280;58577;52.410;13.242;2022-10-18T15:37:33;102054.41;;;13.83;100.00
70925;BME280;58577;52.410;13.242;2022-10-18T15:46:28;102051.31;;;13.57;100.00
70925;BME280;58577;52.410;13.242;2022-10-18T15:55:44;102048.44;;;13.28;100.00
70925;BME280;58577;52.410;13.242;2022-10-18T15:58:44;102052.69;;;13.09;100.00
70925;BME280;58577;52.410;13.242;2022-10-18T16:01:41;102058.91;;;13.00;100.00
70925;BME280;58577;52.410;13.242;2022-10-18T16:04:32;102050.47;;;12.93;100.00
70925;BME280;58577;52.410;13.242;2022-10-18T16:07:17;102053.38;;;12.81;100.00
70925;BME280;58577;52.410;13.242;2022-10-18T16:10:11;102060.25;;;12.73;100.00
70925;BME280;58577;52.410;13.242;2022-10-18T16:12:57;102050.97;;;12.66;100.00
70925;BME280;58577;52.410;13.242;2022-10-18T16:15:43;102050.88;;;12.56;100.00
70925;BME280;58577;52.410;13.242;2022-10-18T16:18:29;102043.31;;;12.50;100.00
70925;BME280;58577;52.410;13.242;2022-10-18T16:21:36;102051.31;;;12.41;100.00
70925;BME280;58577;52.410;13.242;2022-10-18T16:24:22;102057.69;;;12.28;100.00
70925;BME280;58577;52.410;13.242;2022-10-18T16:27:08;102054.88;;;12.18;100.00
70925;BME280;58577;52.410;13.242;2022-10-18T16:29:54;102054.78;;;12.09;100.00
70925;BME280;58577;52.410;13.242;2022-10-18T16:32:40;102055.56;;;11.99;100.00
70925;BME280;58577;52.410;13.242;2022-10-18T16:35:25;102061.69;;;11.90;100.00
70925;BME280;58577;52.410;13.242;2022-10-18T16:38:20;102058.72;;;11.82;100.00
70925;BME280;58577;52.410;13.242;2022-10-18T16:41:07;102069.22;;;11.74;100.00
70925;BME280;58577;52.410;13.242;2022-10-18T16:43:53;102071.28;;;11.70;100.00
70925;BME280;58577;52.410;13.242;2022-10-18T16:46:39;102079.97;;;11.63;100.00